createdAt,value
2022-11-04T00:02:35.113Z,98702.38
2022-11-04T00:05:25.593Z,98712.22
2022-11-04T00:12:05.325Z,98740.97
2022-11-04T00:15:22.288Z,98752.53
2022-11-04T00:18:15.431Z,98759.00
2022-11-04T00:21:38.792Z,98758.69
2022-11-04T00:24:59.329Z,98755.75
2022-11-04T00:28:12.867Z,98752.09
2022-11-04T00:31:26.904Z,98748.69
2022-11-04T00:34:18.070Z,98752.03
2022-11-04T00:37:09.386Z,98747.72
2022-11-04T00:40:08.857Z,98740.84
2022-11-04T00:43:18.942Z,98739.97
2022-11-04T00:46:30.728Z,98735.03
2022-11-04T00:49:26.027Z,98736.56
2022-11-04T00:52:17.415Z,98738.84
2022-11-04T00:55:10.701Z,98743.91
2022-11-04T01:01:22.432Z,98736.66
2022-11-04T01:04:13.923Z,98734.88
2022-11-04T01:07:18.404Z,98737.91
2022-11-04T01:10:22.143Z,98746.03
2022-11-04T01:13:17.763Z,98757.13
2022-11-04T01:16:13.595Z,98758.06
2022-11-04T01:19:02.948Z,98774.00
2022-11-04T01:21:54.479Z,98776.94
2022-11-04T01:24:45.766Z,98762.84
2022-11-04T01:27:44.062Z,98749.28
2022-11-04T01:30:34.613Z,98748.97
2022-11-04T01:33:28.619Z,98774.47
2022-11-04T01:36:17.739Z,98775.63
2022-11-04T01:39:17.610Z,98784.38
2022-11-04T01:42:22.926Z,98794.22
2022-11-04T01:45:22.977Z,98783.16
2022-11-04T01:48:20.985Z,98797.94
2022-11-04T01:51:16.519Z,98801.19
2022-11-04T01:54:10.479Z,98790.56
2022-11-04T01:57:15.009Z,98807.94
2022-11-04T02:00:17.061Z,98809.16
2022-11-04T02:03:50.847Z,98784.41
2022-11-04T02:06:41.247Z,98786.84
2022-11-04T02:09:31.751Z,98797.09
2022-11-04T02:12:40.912Z,98794.22
2022-11-04T02:15:46.645Z,98777.22
2022-11-04T02:19:04.665Z,98780.94
2022-11-04T02:22:12.577Z,98781.47
2022-11-04T02:26:02.321Z,98793.47
2022-11-04T02:29:42.111Z,98793.81
2022-11-04T02:36:21.666Z,98789.28
2022-11-04T02:39:32.645Z,98799.88
2022-11-04T02:42:37.967Z,98798.41
2022-11-04T02:46:13.613Z,98805.13
2022-11-04T02:49:31.835Z,98805.00
2022-11-04T02:56:18.028Z,98817.94
2022-11-04T02:59:24.194Z,98842.94
2022-11-04T03:02:22.106Z,98832.38
2022-11-04T03:06:01.866Z,98843.88
2022-11-04T03:08:55.939Z,98848.94
2022-11-04T03:12:10.002Z,98839.41
2022-11-04T03:15:22.491Z,98840.59
2022-11-04T03:18:23.000Z,98840.00
2022-11-04T03:21:18.370Z,98841.88
2022-11-04T03:24:12.328Z,98839.59
2022-11-04T03:27:11.527Z,98835.78
2022-11-04T03:30:14.036Z,98851.13
2022-11-04T03:33:52.447Z,98853.44
2022-11-04T03:36:44.144Z,98836.88
2022-11-04T03:39:35.692Z,98877.25
2022-11-04T03:42:32.849Z,98868.53
2022-11-04T03:45:26.181Z,98863.47
2022-11-04T03:48:22.833Z,98868.69
2022-11-04T03:51:11.886Z,98870.69
2022-11-04T03:54:19.463Z,98872.25
2022-11-04T03:57:38.630Z,98871.50
2022-11-04T04:00:35.151Z,98877.31
2022-11-04T04:03:58.432Z,98876.88
2022-11-04T04:07:04.691Z,98866.47
2022-11-04T04:10:04.977Z,98871.22
2022-11-04T04:16:41.335Z,98892.75
2022-11-04T04:19:44.446Z,98894.72
2022-11-04T04:23:00.676Z,98886.88
2022-11-04T04:29:38.460Z,98877.88
2022-11-04T04:33:06.932Z,98881.69
2022-11-04T04:36:24.491Z,98889.97
2022-11-04T04:43:44.995Z,98893.66
2022-11-04T04:46:45.990Z,98896.72
2022-11-04T04:49:50.049Z,98889.97
2022-11-04T04:52:58.969Z,98899.47
2022-11-04T04:56:04.558Z,98895.13
2022-11-04T04:59:16.012Z,98897.13
2022-11-04T05:02:25.906Z,98883.16
2022-11-04T05:05:52.671Z,98881.66
2022-11-04T05:09:00.926Z,98876.56
2022-11-04T05:11:56.535Z,98901.09
2022-11-04T05:14:57.023Z,98887.41
2022-11-04T05:18:23.867Z,98889.75
2022-11-04T05:21:27.931Z,98893.28
2022-11-04T05:24:16.023Z,98894.94
2022-11-04T05:27:04.348Z,98893.41
2022-11-04T05:29:52.586Z,98904.13
2022-11-04T05:32:46.681Z,98904.28
2022-11-04T05:35:47.171Z,98914.41
2022-11-04T05:38:35.335Z,98919.91
2022-11-04T05:41:26.464Z,98912.25
2022-11-04T05:44:15.969Z,98907.16
2022-11-04T05:47:04.126Z,98905.66
2022-11-04T05:49:52.549Z,98904.13
2022-11-04T05:52:40.693Z,98894.94
2022-11-04T05:55:29.408Z,98893.84
2022-11-04T05:58:23.115Z,98915.44
2022-11-04T06:01:37.773Z,98908.09
2022-11-04T06:30:12.947Z,98902.09
2022-11-04T07:00:15.746Z,98969.16
2022-11-04T07:03:38.172Z,98960.09
2022-11-04T07:37:24.359Z,99003.66
2022-11-04T07:52:18.333Z,99000.94
2022-11-04T07:55:22.457Z,98999.69
2022-11-04T08:40:59.763Z,98994.22
2022-11-04T08:44:09.585Z,98998.31
2022-11-04T10:56:37.947Z,99003.69
2022-11-04T11:04:00.081Z,98995.16
2022-11-04T11:28:31.198Z,98980.63
2022-11-04T12:15:09.002Z,98974.34
2022-11-04T12:32:39.140Z,98977.97
2022-11-04T12:37:00.121Z,98970.22
2022-11-04T12:41:34.255Z,98975.34
2022-11-04T16:19:02.354Z,99166.94
2022-11-04T16:22:09.637Z,99174.91
2022-11-04T16:25:20.375Z,99180.81
2022-11-04T16:28:42.970Z,99172.75
2022-11-04T16:34:20.301Z,99193.84
2022-11-04T16:37:32.140Z,99198.91
2022-11-04T16:40:53.308Z,99208.94
2022-11-04T16:43:49.811Z,99202.22
2022-11-04T16:47:15.574Z,99205.53
2022-11-04T16:50:15.626Z,99214.28
2022-11-04T16:53:03.949Z,99210.22
2022-11-04T16:56:10.675Z,99209.06
2022-11-04T16:58:59.061Z,99221.22
2022-11-04T17:01:47.557Z,99227.06
2022-11-04T17:04:36.177Z,99220.28
2022-11-04T17:07:47.425Z,99230.13
2022-11-04T17:10:37.840Z,99227.03
2022-11-04T17:13:32.089Z,99214.75
2022-11-04T17:16:37.351Z,99234.13
2022-11-04T17:19:34.258Z,99232.75
2022-11-04T17:22:22.893Z,99234.75
2022-11-04T17:25:24.179Z,99237.81
2022-11-04T17:28:15.595Z,99244.88
2022-11-04T17:31:05.247Z,99243.34
2022-11-04T17:33:59.014Z,99255.19
2022-11-04T17:36:49.994Z,99263.00
2022-11-04T17:39:58.047Z,99250.56
2022-11-04T17:43:11.239Z,99254.81
2022-11-04T17:46:20.473Z,99261.56
2022-11-04T17:49:18.596Z,99271.72
2022-11-04T17:52:17.863Z,99272.38
2022-11-04T17:55:07.624Z,99269.59
2022-11-04T17:57:58.424Z,99285.75
2022-11-04T18:00:46.967Z,99294.81
2022-11-04T18:03:36.785Z,99282.81
2022-11-04T18:06:31.325Z,99301.03
2022-11-04T18:09:19.708Z,99292.56
2022-11-04T18:12:31.927Z,99296.56
2022-11-04T18:15:20.169Z,99306.81
2022-11-04T18:18:11.498Z,99297.69
2022-11-04T18:21:05.376Z,99294.41
2022-11-04T18:23:56.980Z,99292.25
2022-11-04T18:26:48.566Z,99296.78
2022-11-04T18:29:37.247Z,99309.13
2022-11-04T18:32:25.502Z,99308.22
2022-11-04T18:35:13.941Z,99322.53
2022-11-04T18:38:02.253Z,99333.59
2022-11-04T18:40:51.082Z,99329.28
2022-11-04T18:43:39.658Z,99329.75
2022-11-04T18:46:28.043Z,99331.50
2022-11-04T18:49:18.864Z,99340.25
2022-11-04T18:52:07.102Z,99343.03
2022-11-04T18:54:58.014Z,99353.81
2022-11-04T18:57:46.696Z,99340.88
2022-11-04T19:00:37.843Z,99355.97
2022-11-04T19:03:26.001Z,99351.03
2022-11-04T19:06:22.426Z,99357.16
2022-11-04T19:09:40.600Z,99369.03
2022-11-04T19:12:40.490Z,99363.50
2022-11-04T19:15:28.579Z,99364.91
2022-11-04T19:18:18.201Z,99372.44
2022-11-04T19:21:13.266Z,99370.88
2022-11-04T19:24:02.216Z,99371.50
2022-11-04T19:26:50.774Z,99382.88
2022-11-04T19:29:38.954Z,99378.91
2022-11-04T19:32:27.682Z,99386.41
2022-11-04T19:35:16.090Z,99384.72
2022-11-04T19:38:04.666Z,99392.28
2022-11-04T19:40:54.664Z,99385.66
2022-11-04T19:43:42.861Z,99402.38
2022-11-04T19:46:32.114Z,99398.41
2022-11-04T19:49:23.379Z,99407.13
2022-11-04T19:52:12.005Z,99403.41
2022-11-04T19:55:00.433Z,99407.19
2022-11-04T19:57:49.007Z,99411.97
2022-11-04T20:00:37.765Z,99419.28
2022-11-04T20:03:26.735Z,99420.66
2022-11-04T20:06:18.701Z,99417.25
2022-11-04T20:09:13.392Z,99421.50
2022-11-04T20:12:20.235Z,99427.81
2022-11-04T20:15:09.976Z,99432.91
2022-11-04T20:17:58.575Z,99425.97
2022-11-04T20:20:46.647Z,99440.47
2022-11-04T20:23:40.603Z,99439.09
2022-11-04T20:26:38.397Z,99453.97
2022-11-04T20:29:26.934Z,99457.22
2022-11-04T20:32:18.239Z,99461.38
2022-11-04T20:35:10.146Z,99468.50
2022-11-04T20:38:03.285Z,99469.84
2022-11-04T20:40:55.726Z,99470.19
2022-11-04T20:43:49.572Z,99469.06
2022-11-04T20:46:38.193Z,99470.94
2022-11-04T20:49:28.613Z,99477.13
2022-11-04T20:52:32.748Z,99467.84
2022-11-04T21:08:39.323Z,99500.88
2022-11-04T21:11:33.126Z,99508.63
2022-11-04T21:14:24.446Z,99511.25
2022-11-04T21:17:17.849Z,99508.75
2022-11-04T21:20:07.707Z,99509.47
2022-11-04T21:22:55.784Z,99510.31
2022-11-04T21:26:06.987Z,99524.81
2022-11-04T21:29:16.708Z,99519.56
2022-11-04T21:32:05.029Z,99521.25
2022-11-04T21:34:53.855Z,99526.31
2022-11-04T21:37:45.181Z,99526.31
2022-11-04T21:43:19.189Z,99538.06
2022-11-04T21:46:14.635Z,99536.78
2022-11-04T21:49:15.365Z,99536.22
2022-11-04T21:52:06.607Z,99528.28
2022-11-04T21:55:00.623Z,99544.09
2022-11-04T21:57:49.662Z,99546.25
2022-11-04T22:03:52.234Z,99548.75
2022-11-04T22:07:02.175Z,99549.72
2022-11-04T22:09:56.282Z,99546.59
2022-11-04T22:13:06.756Z,99548.75
2022-11-04T22:16:01.045Z,99567.72
2022-11-04T22:19:09.946Z,99562.97
2022-11-04T22:22:40.388Z,99559.22
2022-11-04T22:25:39.435Z,99566.22
2022-11-04T22:28:36.857Z,99571.47
2022-11-04T22:59:09.565Z,99586.25
2022-11-04T23:02:23.486Z,99588.47
2022-11-04T23:05:26.399Z,99588.31
2022-11-04T23:08:47.375Z,99587.63
2022-11-04T23:12:09.297Z,99593.63
2022-11-04T23:18:46.268Z,99591.66
2022-11-04T23:27:03.436Z,99610.63
2022-11-04T23:30:10.247Z,99596.19
2022-11-04T23:33:03.159Z,99620.78
2022-11-04T23:36:10.196Z,99612.84
2022-11-04T23:38:58.786Z,99627.53
2022-11-04T23:42:07.066Z,99630.78
2022-11-04T23:45:19.016Z,99624.41
2022-11-04T23:48:28.474Z,99620.00
2022-11-04T23:51:46.066Z,99631.72
2022-11-04T23:54:52.978Z,99623.78
2022-11-04T23:58:02.628Z,99641.00
